sensor_id;sensor_type;location;lat;lon;timestamp;temperature;humidity
19348;DHT22;9810;52.480;9.806;2023-08-12T00:00:45;18.30;99.90
19348;DHT22;9810;52.480;9.806;2023-08-12T00:03:13;18.30;99.90
19348;DHT22;9810;52.480;9.806;2023-08-12T00:05:44;18.30;99.90
19348;DHT22;9810;52.480;9.806;2023-08-12T00:08:26;18.30;99.90
19348;DHT22;9810;52.480;9.806;2023-08-12T00:10:58;18.30;99.90
19348;DHT22;9810;52.480;9.806;2023-08-12T00:13:25;18.30;99.90
19348;DHT22;9810;52.480;9.806;2023-08-12T00:15:52;18.40;99.90
19348;DHT22;9810;52.480;9.806;2023-08-12T00:18:22;18.30;99.90
19348;DHT22;9810;52.480;9.806;2023-08-12T00:20:52;18.30;99.90
19348;DHT22;9810;52.480;9.806;2023-08-12T00:23:20;18.30;99.90
19348;DHT22;9810;52.480;9.806;2023-08-12T00:25:58;18.40;99.90
19348;DHT22;9810;52.480;9.806;2023-08-12T00:28:25;18.30;99.90
19348;DHT22;9810;52.480;9.806;2023-08-12T00:30:52;18.30;99.90
19348;DHT22;9810;52.480;9.806;2023-08-12T00:33:19;18.30;99.90
19348;DHT22;9810;52.480;9.806;2023-08-12T00:35:48;18.20;99.90
19348;DHT22;9810;52.480;9.806;2023-08-12T00:38:20;18.20;99.90
19348;DHT22;9810;52.480;9.806;2023-08-12T00:40:53;18.10;99.90
19348;DHT22;9810;52.480;9.806;2023-08-12T00:43:20;18.20;99.90
19348;DHT22;9810;52.480;9.806;2023-08-12T00:45:49;18.30;99.90
19348;DHT22;9810;52.480;9.806;2023-08-12T00:48:17;18.30;99.90
19348;DHT22;9810;52.480;9.806;2023-08-12T00:50:45;18.20;99.90
19348;DHT22;9810;52.480;9.806;2023-08-12T00:53:16;18.30;99.90
19348;DHT22;9810;52.480;9.806;2023-08-12T00:55:50;18.30;99.90
19348;DHT22;9810;52.480;9.806;2023-08-12T00:58:19;18.30;99.90
19348;DHT22;9810;52.480;9.806;2023-08-12T01:00:49;18.30;99.90
19348;DHT22;9810;52.480;9.806;2023-08-12T01:03:16;18.40;99.90
19348;DHT22;9810;52.480;9.806;2023-08-12T01:05:46;18.40;99.90
19348;DHT22;9810;52.480;9.806;2023-08-12T01:08:16;18.30;99.90
19348;DHT22;9810;52.480;9.806;2023-08-12T01:11:07;18.30;99.90
19348;DHT22;9810;52.480;9.806;2023-08-12T01:13:44;18.30;99.90
19348;DHT22;9810;52.480;9.806;2023-08-12T01:16:30;18.30;99.90
19348;DHT22;9810;52.480;9.806;2023-08-12T01:19:11;18.20;99.90
19348;DHT22;9810;52.480;9.806;2023-08-12T01:28:26;18.40;99.90
19348;DHT22;9810;52.480;9.806;2023-08-12T01:31:12;18.40;99.90
19348;DHT22;9810;52.480;9.806;2023-08-12T01:33:51;18.30;99.90
19348;DHT22;9810;52.480;9.806;2023-08-12T01:36:20;18.30;99.90
19348;DHT22;9810;52.480;9.806;2023-08-12T01:38:56;18.40;99.90
19348;DHT22;9810;52.480;9.806;2023-08-12T01:47:21;18.40;99.90
19348;DHT22;9810;52.480;9.806;2023-08-12T01:49:48;18.50;99.90
19348;DHT22;9810;52.480;9.806;2023-08-12T01:52:15;18.60;99.90
19348;DHT22;9810;52.480;9.806;2023-08-12T01:54:41;18.60;99.90
19348;DHT22;9810;52.480;9.806;2023-08-12T01:57:08;18.70;99.90
19348;DHT22;9810;52.480;9.806;2023-08-12T01:59:35;18.70;99.90
19348;DHT22;9810;52.480;9.806;2023-08-12T02:02:03;18.60;99.90
19348;DHT22;9810;52.480;9.806;2023-08-12T02:04:32;18.60;99.90
19348;DHT22;9810;52.480;9.806;2023-08-12T02:06:59;18.50;99.90
19348;DHT22;9810;52.480;9.806;2023-08-12T02:09:26;18.50;99.90
19348;DHT22;9810;52.480;9.806;2023-08-12T02:11:53;18.50;99.90
19348;DHT22;9810;52.480;9.806;2023-08-12T02:14:20;18.40;99.90
19348;DHT22;9810;52.480;9.806;2023-08-12T02:16:47;18.50;99.90
19348;DHT22;9810;52.480;9.806;2023-08-12T02:19:14;18.40;99.90
19348;DHT22;9810;52.480;9.806;2023-08-12T02:21:43;18.40;99.90
19348;DHT22;9810;52.480;9.806;2023-08-12T02:24:10;18.40;99.90
19348;DHT22;9810;52.480;9.806;2023-08-12T02:26:37;18.40;99.90
19348;DHT22;9810;52.480;9.806;2023-08-12T02:29:04;18.50;99.90
19348;DHT22;9810;52.480;9.806;2023-08-12T02:31:31;18.50;99.90
19348;DHT22;9810;52.480;9.806;2023-08-12T02:33:58;18.60;99.90
19348;DHT22;9810;52.480;9.806;2023-08-12T02:36:26;18.70;99.90
19348;DHT22;9810;52.480;9.806;2023-08-12T02:38:54;18.70;99.90
19348;DHT22;9810;52.480;9.806;2023-08-12T02:41:21;18.70;99.90
19348;DHT22;9810;52.480;9.806;2023-08-12T02:43:48;18.80;99.90
19348;DHT22;9810;52.480;9.806;2023-08-12T02:46:15;18.80;99.90
19348;DHT22;9810;52.480;9.806;2023-08-12T02:48:43;18.80;99.90
19348;DHT22;9810;52.480;9.806;2023-08-12T02:51:10;18.70;99.90
19348;DHT22;9810;52.480;9.806;2023-08-12T02:53:37;18.70;99.90
19348;DHT22;9810;52.480;9.806;2023-08-12T02:56:05;18.70;99.90
19348;DHT22;9810;52.480;9.806;2023-08-12T02:58:32;18.80;99.90
19348;DHT22;9810;52.480;9.806;2023-08-12T03:00:59;18.80;99.90
19348;DHT22;9810;52.480;9.806;2023-08-12T03:03:26;18.90;99.90
19348;DHT22;9810;52.480;9.806;2023-08-12T03:05:53;18.90;99.90
19348;DHT22;9810;52.480;9.806;2023-08-12T03:08:20;18.90;99.90
19348;DHT22;9810;52.480;9.806;2023-08-12T03:10:47;19.00;99.90
19348;DHT22;9810;52.480;9.806;2023-08-12T03:13:15;19.10;99.90
19348;DHT22;9810;52.480;9.806;2023-08-12T03:15:42;19.20;99.90
19348;DHT22;9810;52.480;9.806;2023-08-12T03:18:09;19.30;99.90
19348;DHT22;9810;52.480;9.806;2023-08-12T03:20:37;19.30;99.90
19348;DHT22;9810;52.480;9.806;2023-08-12T03:23:03;19.30;99.90
19348;DHT22;9810;52.480;9.806;2023-08-12T03:25:30;19.20;99.90
19348;DHT22;9810;52.480;9.806;2023-08-12T03:27:58;19.20;99.90
19348;DHT22;9810;52.480;9.806;2023-08-12T03:30:26;19.10;99.90
19348;DHT22;9810;52.480;9.806;2023-08-12T03:32:53;19.10;99.90
19348;DHT22;9810;52.480;9.806;2023-08-12T03:35:20;19.10;99.90
19348;DHT22;9810;52.480;9.806;2023-08-12T03:37:47;19.10;99.90
19348;DHT22;9810;52.480;9.806;2023-08-12T03:40:14;19.20;99.90
19348;DHT22;9810;52.480;9.806;2023-08-12T03:42:41;19.10;99.90
19348;DHT22;9810;52.480;9.806;2023-08-12T03:45:10;19.10;99.90
19348;DHT22;9810;52.480;9.806;2023-08-12T03:47:39;19.10;99.90
19348;DHT22;9810;52.480;9.806;2023-08-12T03:50:06;19.10;99.90
19348;DHT22;9810;52.480;9.806;2023-08-12T03:52:33;19.10;99.90
19348;DHT22;9810;52.480;9.806;2023-08-12T03:55:00;19.20;99.90
19348;DHT22;9810;52.480;9.806;2023-08-12T03:57:27;19.30;99.90
19348;DHT22;9810;52.480;9.806;2023-08-12T03:59:54;19.30;99.90
19348;DHT22;9810;52.480;9.806;2023-08-12T04:02:23;19.20;99.90
19348;DHT22;9810;52.480;9.806;2023-08-12T04:04:51;19.20;99.90
19348;DHT22;9810;52.480;9.806;2023-08-12T04:07:18;19.20;99.90
19348;DHT22;9810;52.480;9.806;2023-08-12T04:09:45;19.10;99.90
19348;DHT22;9810;52.480;9.806;2023-08-12T04:12:12;19.00;99.90
19348;DHT22;9810;52.480;9.806;2023-08-12T04:14:39;19.00;99.90
19348;DHT22;9810;52.480;9.806;2023-08-12T04:17:06;19.00;99.90
19348;DHT22;9810;52.480;9.806;2023-08-12T04:19:33;19.00;99.90
19348;DHT22;9810;52.480;9.806;2023-08-12T04:22:02;18.90;99.90
19348;DHT22;9810;52.480;9.806;2023-08-12T04:24:29;18.90;99.90
19348;DHT22;9810;52.480;9.806;2023-08-12T04:26:56;19.00;99.90
19348;DHT22;9810;52.480;9.806;2023-08-12T04:29:23;19.00;99.90
19348;DHT22;9810;52.480;9.806;2023-08-12T04:31:50;19.10;99.90
19348;DHT22;9810;52.480;9.806;2023-08-12T04:34:18;19.10;99.90
19348;DHT22;9810;52.480;9.806;2023-08-12T04:36:45;19.10;99.90
19348;DHT22;9810;52.480;9.806;2023-08-12T04:39:14;19.10;99.90
19348;DHT22;9810;52.480;9.806;2023-08-12T04:41:41;19.00;99.90
19348;DHT22;9810;52.480;9.806;2023-08-12T04:44:08;19.10;99.90
19348;DHT22;9810;52.480;9.806;2023-08-12T04:46:35;19.10;99.90
19348;DHT22;9810;52.480;9.806;2023-08-12T04:49:02;19.10;99.90
19348;DHT22;9810;52.480;9.806;2023-08-12T04:51:29;19.10;99.90
19348;DHT22;9810;52.480;9.806;2023-08-12T04:53:56;19.00;99.90
19348;DHT22;9810;52.480;9.806;2023-08-12T04:56:25;19.00;99.90
19348;DHT22;9810;52.480;9.806;2023-08-12T04:58:54;18.90;99.90
19348;DHT22;9810;52.480;9.806;2023-08-12T05:01:21;18.80;99.90
19348;DHT22;9810;52.480;9.806;2023-08-12T05:03:48;18.90;99.90
19348;DHT22;9810;52.480;9.806;2023-08-12T05:06:15;18.80;99.90
19348;DHT22;9810;52.480;9.806;2023-08-12T05:08:42;18.80;99.90
19348;DHT22;9810;52.480;9.806;2023-08-12T05:11:09;18.80;99.90
19348;DHT22;9810;52.480;9.806;2023-08-12T05:13:38;18.80;99.90
19348;DHT22;9810;52.480;9.806;2023-08-12T05:16:05;18.80;99.90
19348;DHT22;9810;52.480;9.806;2023-08-12T05:18:32;18.80;99.90
19348;DHT22;9810;52.480;9.806;2023-08-12T05:20:58;18.90;99.90
19348;DHT22;9810;52.480;9.806;2023-08-12T05:23:25;18.90;99.90
19348;DHT22;9810;52.480;9.806;2023-08-12T05:25:52;18.90;99.90
19348;DHT22;9810;52.480;9.806;2023-08-12T05:28:19;18.90;99.90
19348;DHT22;9810;52.480;9.806;2023-08-12T05:30:48;19.00;99.90
19348;DHT22;9810;52.480;9.806;2023-08-12T05:33:15;19.00;99.90
19348;DHT22;9810;52.480;9.806;2023-08-12T05:35:42;19.00;99.90
19348;DHT22;9810;52.480;9.806;2023-08-12T05:38:09;19.00;99.90
19348;DHT22;9810;52.480;9.806;2023-08-12T05:40:36;19.10;99.90
19348;DHT22;9810;52.480;9.806;2023-08-12T05:43:03;19.20;99.90
19348;DHT22;9810;52.480;9.806;2023-08-12T05:45:30;19.20;99.90
19348;DHT22;9810;52.480;9.806;2023-08-12T05:47:58;19.30;99.90
19348;DHT22;9810;52.480;9.806;2023-08-12T05:50:25;19.40;99.90
19348;DHT22;9810;52.480;9.806;2023-08-12T05:52:52;19.40;99.90
19348;DHT22;9810;52.480;9.806;2023-08-12T05:55:19;19.40;99.90
19348;DHT22;9810;52.480;9.806;2023-08-12T05:57:46;19.40;99.90
19348;DHT22;9810;52.480;9.806;2023-08-12T06:00:14;19.40;99.90
19348;DHT22;9810;52.480;9.806;2023-08-12T06:02:40;19.40;99.90
19348;DHT22;9810;52.480;9.806;2023-08-12T06:05:10;19.40;99.90
19348;DHT22;9810;52.480;9.806;2023-08-12T06:07:37;19.40;99.90
19348;DHT22;9810;52.480;9.806;2023-08-12T06:10:05;19.40;99.90
19348;DHT22;9810;52.480;9.806;2023-08-12T06:12:32;19.50;99.90
19348;DHT22;9810;52.480;9.806;2023-08-12T06:14:59;19.50;99.90
19348;DHT22;9810;52.480;9.806;2023-08-12T06:17:26;19.50;99.90
19348;DHT22;9810;52.480;9.806;2023-08-12T06:19:53;19.50;99.90
19348;DHT22;9810;52.480;9.806;2023-08-12T06:22:22;19.60;99.90
19348;DHT22;9810;52.480;9.806;2023-08-12T06:24:49;19.60;99.90
19348;DHT22;9810;52.480;9.806;2023-08-12T06:27:16;19.70;99.90
19348;DHT22;9810;52.480;9.806;2023-08-12T06:29:45;19.80;99.90
19348;DHT22;9810;52.480;9.806;2023-08-12T06:32:12;19.80;99.90
19348;DHT22;9810;52.480;9.806;2023-08-12T06:34:40;19.70;99.90
19348;DHT22;9810;52.480;9.806;2023-08-12T06:37:07;19.70;99.90
19348;DHT22;9810;52.480;9.806;2023-08-12T06:39:37;19.80;99.90
19348;DHT22;9810;52.480;9.806;2023-08-12T06:50:11;20.00;99.90
19348;DHT22;9810;52.480;9.806;2023-08-12T09:07:42;22.00;99.90
19348;DHT22;9810;52.480;9.806;2023-08-12T09:10:11;21.90;99.90
19348;DHT22;9810;52.480;9.806;2023-08-12T09:12:40;21.90;99.90
19348;DHT22;9810;52.480;9.806;2023-08-12T09:15:08;22.10;99.90
19348;DHT22;9810;52.480;9.806;2023-08-12T09:17:35;21.90;99.90
19348;DHT22;9810;52.480;9.806;2023-08-12T09:20:02;21.80;99.90
19348;DHT22;9810;52.480;9.806;2023-08-12T09:22:33;21.70;99.90
19348;DHT22;9810;52.480;9.806;2023-08-12T09:25:04;21.80;99.90
19348;DHT22;9810;52.480;9.806;2023-08-12T09:27:31;21.60;99.90
19348;DHT22;9810;52.480;9.806;2023-08-12T09:29:58;21.70;99.90
19348;DHT22;9810;52.480;9.806;2023-08-12T09:32:26;21.60;99.90
19348;DHT22;9810;52.480;9.806;2023-08-12T09:34:55;21.50;99.90
19348;DHT22;9810;52.480;9.806;2023-08-12T09:37:24;21.50;99.90
19348;DHT22;9810;52.480;9.806;2023-08-12T09:39:52;21.50;99.90
19348;DHT22;9810;52.480;9.806;2023-08-12T09:42:21;21.60;99.90
19348;DHT22;9810;52.480;9.806;2023-08-12T09:44:50;21.70;99.90
19348;DHT22;9810;52.480;9.806;2023-08-12T09:47:17;21.90;99.90
19348;DHT22;9810;52.480;9.806;2023-08-12T09:49:47;21.90;99.90
19348;DHT22;9810;52.480;9.806;2023-08-12T09:52:15;22.00;99.90
19348;DHT22;9810;52.480;9.806;2023-08-12T09:54:42;22.20;99.90
19348;DHT22;9810;52.480;9.806;2023-08-12T09:57:10;22.20;99.90
19348;DHT22;9810;52.480;9.806;2023-08-12T09:59:41;22.10;99.90
19348;DHT22;9810;52.480;9.806;2023-08-12T10:02:12;22.00;99.90
19348;DHT22;9810;52.480;9.806;2023-08-12T10:04:45;22.00;99.90
19348;DHT22;9810;52.480;9.806;2023-08-12T10:07:12;22.10;99.90
19348;DHT22;9810;52.480;9.806;2023-08-12T10:09:40;22.20;99.90
19348;DHT22;9810;52.480;9.806;2023-08-12T10:12:08;22.00;99.90
19348;DHT22;9810;52.480;9.806;2023-08-12T10:14:35;21.90;99.90
19348;DHT22;9810;52.480;9.806;2023-08-12T10:17:55;21.90;99.90
19348;DHT22;9810;52.480;9.806;2023-08-12T10:20:25;21.90;99.90
19348;DHT22;9810;52.480;9.806;2023-08-12T10:22:54;22.00;99.90
19348;DHT22;9810;52.480;9.806;2023-08-12T10:25:22;22.00;99.90
19348;DHT22;9810;52.480;9.806;2023-08-12T10:27:53;22.10;99.90
19348;DHT22;9810;52.480;9.806;2023-08-12T10:30:21;22.00;99.90
19348;DHT22;9810;52.480;9.806;2023-08-12T10:32:50;22.00;99.90
19348;DHT22;9810;52.480;9.806;2023-08-12T10:35:17;22.10;99.90
19348;DHT22;9810;52.480;9.806;2023-08-12T10:37:49;22.30;99.90
19348;DHT22;9810;52.480;9.806;2023-08-12T10:40:21;22.40;99.90
19348;DHT22;9810;52.480;9.806;2023-08-12T10:42:49;22.50;99.90
19348;DHT22;9810;52.480;9.806;2023-08-12T10:45:17;22.50;99.90
19348;DHT22;9810;52.480;9.806;2023-08-12T10:47:53;22.50;99.90
19348;DHT22;9810;52.480;9.806;2023-08-12T10:50:35;22.50;99.90
19348;DHT22;9810;52.480;9.806;2023-08-12T10:53:21;22.50;99.90
19348;DHT22;9810;52.480;9.806;2023-08-12T10:55:49;22.50;99.90
19348;DHT22;9810;52.480;9.806;2023-08-12T10:58:26;22.50;99.90
19348;DHT22;9810;52.480;9.806;2023-08-12T11:00:54;22.70;99.90
19348;DHT22;9810;52.480;9.806;2023-08-12T11:03:23;22.80;99.90
19348;DHT22;9810;52.480;9.806;2023-08-12T11:05:50;22.90;99.90
19348;DHT22;9810;52.480;9.806;2023-08-12T11:08:24;22.80;99.90
19348;DHT22;9810;52.480;9.806;2023-08-12T11:10:54;22.80;99.90
19348;DHT22;9810;52.480;9.806;2023-08-12T11:13:22;22.90;99.90
19348;DHT22;9810;52.480;9.806;2023-08-12T11:15:50;23.00;99.90
19348;DHT22;9810;52.480;9.806;2023-08-12T11:18:18;23.30;99.90
19348;DHT22;9810;52.480;9.806;2023-08-12T11:20:48;23.50;99.90
19348;DHT22;9810;52.480;9.806;2023-08-12T11:23:16;23.70;99.90
19348;DHT22;9810;52.480;9.806;2023-08-12T11:25:47;23.80;99.90
19348;DHT22;9810;52.480;9.806;2023-08-12T11:28:18;24.10;99.90
19348;DHT22;9810;52.480;9.806;2023-08-12T11:30:45;24.40;99.90
19348;DHT22;9810;52.480;9.806;2023-08-12T11:33:12;24.50;99.90
19348;DHT22;9810;52.480;9.806;2023-08-12T11:35:43;24.90;99.90
19348;DHT22;9810;52.480;9.806;2023-08-12T11:38:12;25.20;99.90
19348;DHT22;9810;52.480;9.806;2023-08-12T11:40:40;25.60;99.90
19348;DHT22;9810;52.480;9.806;2023-08-12T11:43:07;25.90;99.90
19348;DHT22;9810;52.480;9.806;2023-08-12T11:45:34;25.40;99.90
19348;DHT22;9810;52.480;9.806;2023-08-12T11:48:03;25.10;99.90
19348;DHT22;9810;52.480;9.806;2023-08-12T11:50:30;25.20;99.90
19348;DHT22;9810;52.480;9.806;2023-08-12T11:52:57;25.00;99.90
19348;DHT22;9810;52.480;9.806;2023-08-12T11:55:27;24.80;99.90
19348;DHT22;9810;52.480;9.806;2023-08-12T11:57:57;24.80;99.90
19348;DHT22;9810;52.480;9.806;2023-08-12T12:00:28;24.80;99.90
19348;DHT22;9810;52.480;9.806;2023-08-12T12:02:56;24.50;99.90
19348;DHT22;9810;52.480;9.806;2023-08-12T12:05:26;24.40;99.90
19348;DHT22;9810;52.480;9.806;2023-08-12T12:07:58;24.30;99.90
19348;DHT22;9810;52.480;9.806;2023-08-12T12:10:30;24.10;99.90
19348;DHT22;9810;52.480;9.806;2023-08-12T12:13:00;24.10;99.90
19348;DHT22;9810;52.480;9.806;2023-08-12T12:15:29;24.00;99.90
19348;DHT22;9810;52.480;9.806;2023-08-12T12:17:58;24.00;99.90
19348;DHT22;9810;52.480;9.806;2023-08-12T12:20:25;24.00;99.90
19348;DHT22;9810;52.480;9.806;2023-08-12T12:23:04;24.00;99.90
19348;DHT22;9810;52.480;9.806;2023-08-12T12:25:34;24.30;99.90
19348;DHT22;9810;52.480;9.806;2023-08-12T12:28:01;24.40;99.90
19348;DHT22;9810;52.480;9.806;2023-08-12T12:30:33;24.40;99.90
19348;DHT22;9810;52.480;9.806;2023-08-12T12:33:01;24.20;99.90
19348;DHT22;9810;52.480;9.806;2023-08-12T12:35:31;24.60;99.90
19348;DHT22;9810;52.480;9.806;2023-08-12T12:38:03;25.10;99.90
19348;DHT22;9810;52.480;9.806;2023-08-12T12:40:32;25.20;99.90
19348;DHT22;9810;52.480;9.806;2023-08-12T12:43:00;25.10;99.90
19348;DHT22;9810;52.480;9.806;2023-08-12T12:45:30;25.00;99.90
19348;DHT22;9810;52.480;9.806;2023-08-12T12:48:19;25.00;99.90
19348;DHT22;9810;52.480;9.806;2023-08-12T12:50:49;24.90;99.90
19348;DHT22;9810;52.480;9.806;2023-08-12T12:53:49;24.80;99.90
19348;DHT22;9810;52.480;9.806;2023-08-12T12:56:36;25.00;99.90
19348;DHT22;9810;52.480;9.806;2023-08-12T12:59:05;24.10;99.90
19348;DHT22;9810;52.480;9.806;2023-08-12T13:01:32;24.00;99.90
19348;DHT22;9810;52.480;9.806;2023-08-12T13:04:00;24.00;99.90
19348;DHT22;9810;52.480;9.806;2023-08-12T13:06:27;23.60;99.90
19348;DHT22;9810;52.480;9.806;2023-08-12T13:08:54;23.30;99.90
19348;DHT22;9810;52.480;9.806;2023-08-12T13:11:21;23.80;99.90
19348;DHT22;9810;52.480;9.806;2023-08-12T13:13:50;24.30;99.90
19348;DHT22;9810;52.480;9.806;2023-08-12T13:16:17;25.10;99.90
19348;DHT22;9810;52.480;9.806;2023-08-12T13:18:46;25.60;99.90
19348;DHT22;9810;52.480;9.806;2023-08-12T13:21:14;25.50;99.90
19348;DHT22;9810;52.480;9.806;2023-08-12T13:23:45;26.00;99.90
19348;DHT22;9810;52.480;9.806;2023-08-12T13:26:12;26.20;99.90
19348;DHT22;9810;52.480;9.806;2023-08-12T13:28:40;25.40;99.90
19348;DHT22;9810;52.480;9.806;2023-08-12T13:31:11;25.40;99.90
19348;DHT22;9810;52.480;9.806;2023-08-12T13:33:42;25.20;99.90
19348;DHT22;9810;52.480;9.806;2023-08-12T13:36:11;25.20;99.90
19348;DHT22;9810;52.480;9.806;2023-08-12T13:38:40;25.20;99.90
19348;DHT22;9810;52.480;9.806;2023-08-12T13:41:15;24.90;99.90
19348;DHT22;9810;52.480;9.806;2023-08-12T13:43:48;24.90;99.90
19348;DHT22;9810;52.480;9.806;2023-08-12T13:46:30;24.90;99.90
19348;DHT22;9810;52.480;9.806;2023-08-12T13:49:12;24.80;99.90
19348;DHT22;9810;52.480;9.806;2023-08-12T13:51:56;25.00;99.90
19348;DHT22;9810;52.480;9.806;2023-08-12T13:54:39;25.00;99.90
19348;DHT22;9810;52.480;9.806;2023-08-12T14:00:38;25.10;99.90
19348;DHT22;9810;52.480;9.806;2023-08-12T14:03:20;25.10;99.90
19348;DHT22;9810;52.480;9.806;2023-08-12T14:06:11;25.10;99.90
19348;DHT22;9810;52.480;9.806;2023-08-12T14:08:42;25.30;99.90
19348;DHT22;9810;52.480;9.806;2023-08-12T14:11:11;25.50;99.90
19348;DHT22;9810;52.480;9.806;2023-08-12T14:13:50;25.50;99.90
19348;DHT22;9810;52.480;9.806;2023-08-12T14:16:19;25.30;99.90
19348;DHT22;9810;52.480;9.806;2023-08-12T14:19:03;25.10;99.90
19348;DHT22;9810;52.480;9.806;2023-08-12T14:21:46;25.00;99.90
19348;DHT22;9810;52.480;9.806;2023-08-12T14:25:37;25.10;99.90
19348;DHT22;9810;52.480;9.806;2023-08-12T14:27:54;25.20;99.90
19348;DHT22;9810;52.480;9.806;2023-08-12T14:30:25;25.40;99.90
19348;DHT22;9810;52.480;9.806;2023-08-12T14:32:52;25.20;99.90
19348;DHT22;9810;52.480;9.806;2023-08-12T14:35:40;25.00;99.90
19348;DHT22;9810;52.480;9.806;2023-08-12T14:38:19;24.80;99.90
19348;DHT22;9810;52.480;9.806;2023-08-12T14:40:51;24.80;99.90
19348;DHT22;9810;52.480;9.806;2023-08-12T14:44:16;24.80;99.90
19348;DHT22;9810;52.480;9.806;2023-08-12T14:46:39;24.80;99.90
19348;DHT22;9810;52.480;9.806;2023-08-12T14:49:09;24.90;99.90
19348;DHT22;9810;52.480;9.806;2023-08-12T14:51:45;24.90;99.90
19348;DHT22;9810;52.480;9.806;2023-08-12T14:54:19;24.80;99.90
19348;DHT22;9810;52.480;9.806;2023-08-12T14:56:47;24.70;99.90
19348;DHT22;9810;52.480;9.806;2023-08-12T14:59:14;24.70;99.90
19348;DHT22;9810;52.480;9.806;2023-08-12T15:01:42;24.60;99.90
19348;DHT22;9810;52.480;9.806;2023-08-12T15:04:20;24.50;99.90
19348;DHT22;9810;52.480;9.806;2023-08-12T15:07:04;24.40;99.90
19348;DHT22;9810;52.480;9.806;2023-08-12T15:09:31;24.20;99.90
19348;DHT22;9810;52.480;9.806;2023-08-12T15:11:58;23.90;99.90
19348;DHT22;9810;52.480;9.806;2023-08-12T15:14:31;23.70;99.90
19348;DHT22;9810;52.480;9.806;2023-08-12T15:16:58;23.70;99.90
19348;DHT22;9810;52.480;9.806;2023-08-12T15:19:25;23.60;99.90
19348;DHT22;9810;52.480;9.806;2023-08-12T15:21:54;23.60;99.90
19348;DHT22;9810;52.480;9.806;2023-08-12T15:24:23;23.60;99.90
19348;DHT22;9810;52.480;9.806;2023-08-12T15:26:50;23.60;99.90
19348;DHT22;9810;52.480;9.806;2023-08-12T15:29:17;23.50;99.90
19348;DHT22;9810;52.480;9.806;2023-08-12T15:31:44;23.50;99.90
19348;DHT22;9810;52.480;9.806;2023-08-12T15:34:10;23.50;99.90
19348;DHT22;9810;52.480;9.806;2023-08-12T15:36:38;23.40;99.90
19348;DHT22;9810;52.480;9.806;2023-08-12T15:39:08;23.40;99.90
19348;DHT22;9810;52.480;9.806;2023-08-12T15:41:40;23.30;99.90
19348;DHT22;9810;52.480;9.806;2023-08-12T15:44:10;23.30;99.90
19348;DHT22;9810;52.480;9.806;2023-08-12T15:46:37;23.20;99.90
19348;DHT22;9810;52.480;9.806;2023-08-12T15:49:04;23.20;99.90
19348;DHT22;9810;52.480;9.806;2023-08-12T15:51:38;23.30;99.90
19348;DHT22;9810;52.480;9.806;2023-08-12T16:01:06;23.70;99.90
19348;DHT22;9810;52.480;9.806;2023-08-12T16:06:53;23.80;99.90
19348;DHT22;9810;52.480;9.806;2023-08-12T16:09:35;23.60;99.90
19348;DHT22;9810;52.480;9.806;2023-08-12T16:12:03;23.60;99.90
19348;DHT22;9810;52.480;9.806;2023-08-12T16:14:36;23.50;99.90
19348;DHT22;9810;52.480;9.806;2023-08-12T16:20:14;23.30;99.90
19348;DHT22;9810;52.480;9.806;2023-08-12T16:22:41;23.40;99.90
19348;DHT22;9810;52.480;9.806;2023-08-12T16:25:08;23.40;99.90
19348;DHT22;9810;52.480;9.806;2023-08-12T16:27:35;23.20;99.90
19348;DHT22;9810;52.480;9.806;2023-08-12T16:30:03;23.20;99.90
19348;DHT22;9810;52.480;9.806;2023-08-12T16:32:30;23.20;99.90
19348;DHT22;9810;52.480;9.806;2023-08-12T16:34:57;23.20;99.90
19348;DHT22;9810;52.480;9.806;2023-08-12T16:37:26;23.00;99.90
19348;DHT22;9810;52.480;9.806;2023-08-12T16:39:53;23.00;99.90
19348;DHT22;9810;52.480;9.806;2023-08-12T16:42:20;23.00;99.90
19348;DHT22;9810;52.480;9.806;2023-08-12T16:44:47;23.00;99.90
19348;DHT22;9810;52.480;9.806;2023-08-12T16:47:14;23.00;99.90
19348;DHT22;9810;52.480;9.806;2023-08-12T16:49:41;23.00;99.90
19348;DHT22;9810;52.480;9.806;2023-08-12T16:52:08;22.90;99.90
19348;DHT22;9810;52.480;9.806;2023-08-12T16:54:36;22.80;99.90
19348;DHT22;9810;52.480;9.806;2023-08-12T16:57:03;22.70;99.90
19348;DHT22;9810;52.480;9.806;2023-08-12T16:59:30;22.70;99.90
19348;DHT22;9810;52.480;9.806;2023-08-12T17:01:57;22.70;99.90
19348;DHT22;9810;52.480;9.806;2023-08-12T17:04:24;22.70;99.90
19348;DHT22;9810;52.480;9.806;2023-08-12T17:06:51;22.70;99.90
19348;DHT22;9810;52.480;9.806;2023-08-12T17:09:18;22.60;99.90
19348;DHT22;9810;52.480;9.806;2023-08-12T17:11:47;22.60;99.90
19348;DHT22;9810;52.480;9.806;2023-08-12T17:14:14;22.60;99.90
19348;DHT22;9810;52.480;9.806;2023-08-12T17:16:41;22.50;99.90
19348;DHT22;9810;52.480;9.806;2023-08-12T17:19:08;22.50;99.90
19348;DHT22;9810;52.480;9.806;2023-08-12T17:21:35;22.50;99.90
19348;DHT22;9810;52.480;9.806;2023-08-12T17:24:03;22.50;99.90
19348;DHT22;9810;52.480;9.806;2023-08-12T17:26:30;22.50;99.90
19348;DHT22;9810;52.480;9.806;2023-08-12T17:28:58;22.40;99.90
19348;DHT22;9810;52.480;9.806;2023-08-12T17:31:25;22.30;99.90
19348;DHT22;9810;52.480;9.806;2023-08-12T17:33:52;22.20;99.90
19348;DHT22;9810;52.480;9.806;2023-08-12T17:36:19;22.10;99.90
19348;DHT22;9810;52.480;9.806;2023-08-12T17:38:46;22.00;99.90
19348;DHT22;9810;52.480;9.806;2023-08-12T17:41:13;21.90;99.90
19348;DHT22;9810;52.480;9.806;2023-08-12T17:43:41;21.80;99.90
19348;DHT22;9810;52.480;9.806;2023-08-12T17:46:10;21.80;99.90
19348;DHT22;9810;52.480;9.806;2023-08-12T17:48:38;21.60;99.90
19348;DHT22;9810;52.480;9.806;2023-08-12T17:51:06;21.40;99.90
19348;DHT22;9810;52.480;9.806;2023-08-12T17:53:38;21.30;99.90
19348;DHT22;9810;52.480;9.806;2023-08-12T17:56:05;21.30;99.90
19348;DHT22;9810;52.480;9.806;2023-08-12T17:58:32;21.20;99.90
19348;DHT22;9810;52.480;9.806;2023-08-12T18:00:59;21.10;99.90
19348;DHT22;9810;52.480;9.806;2023-08-12T18:03:28;21.10;99.90
19348;DHT22;9810;52.480;9.806;2023-08-12T18:05:55;21.10;99.90
19348;DHT22;9810;52.480;9.806;2023-08-12T18:08:22;21.00;99.90
19348;DHT22;9810;52.480;9.806;2023-08-12T18:17:24;20.90;99.90
19348;DHT22;9810;52.480;9.806;2023-08-12T18:19:54;20.80;99.90
19348;DHT22;9810;52.480;9.806;2023-08-12T18:22:22;20.80;99.90
19348;DHT22;9810;52.480;9.806;2023-08-12T18:24:49;20.70;99.90
19348;DHT22;9810;52.480;9.806;2023-08-12T18:27:16;20.70;99.90
19348;DHT22;9810;52.480;9.806;2023-08-12T18:29:43;20.60;99.90
19348;DHT22;9810;52.480;9.806;2023-08-12T18:32:10;20.60;99.90
19348;DHT22;9810;52.480;9.806;2023-08-12T18:34:37;20.60;99.90
19348;DHT22;9810;52.480;9.806;2023-08-12T18:37:06;20.60;99.90
19348;DHT22;9810;52.480;9.806;2023-08-12T18:39:33;20.50;99.90
19348;DHT22;9810;52.480;9.806;2023-08-12T18:42:00;20.50;99.90
19348;DHT22;9810;52.480;9.806;2023-08-12T18:44:27;20.40;99.90
19348;DHT22;9810;52.480;9.806;2023-08-12T18:46:54;20.40;99.90
19348;DHT22;9810;52.480;9.806;2023-08-12T18:49:21;20.40;99.90
19348;DHT22;9810;52.480;9.806;2023-08-12T18:51:48;20.30;99.90
19348;DHT22;9810;52.480;9.806;2023-08-12T18:54:17;20.30;99.90
19348;DHT22;9810;52.480;9.806;2023-08-12T18:56:45;20.20;99.90
19348;DHT22;9810;52.480;9.806;2023-08-12T18:59:15;20.10;99.90